sensor_id;sensor_type;location;lat;lon;timestamp;P1;durP1;ratioP1;P2;durP2;ratioP2
58784;SDS011;44557;51.862;19.378;2023-05-14T00:00:41;11.10;;;7.10;;
58784;SDS011;44557;51.862;19.378;2023-05-14T00:03:00;11.90;;;7.60;;
58784;SDS011;44557;51.862;19.378;2023-05-14T00:05:02;10.90;;;7.10;;
58784;SDS011;44557;51.862;19.378;2023-05-14T00:07:03;15.90;;;7.60;;
58784;SDS011;44557;51.862;19.378;2023-05-14T00:09:05;14.90;;;7.20;;
58784;SDS011;44557;51.862;19.378;2023-05-14T00:11:09;13.00;;;7.80;;
58784;SDS011;44557;51.862;19.378;2023-05-14T00:13:10;10.70;;;7.30;;
58784;SDS011;44557;51.862;19.378;2023-05-14T00:15:12;13.60;;;8.00;;
58784;SDS011;44557;51.862;19.378;2023-05-14T00:17:14;11.20;;;7.10;;
58784;SDS011;44557;51.862;19.378;2023-05-14T00:19:18;12.50;;;7.50;;
58784;SDS011;44557;51.862;19.378;2023-05-14T00:21:19;12.80;;;7.20;;
58784;SDS011;44557;51.862;19.378;2023-05-14T00:23:21;14.30;;;7.20;;
58784;SDS011;44557;51.862;19.378;2023-05-14T00:25:23;9.90;;;6.70;;
58784;SDS011;44557;51.862;19.378;2023-05-14T00:27:27;11.80;;;7.80;;
58784;SDS011;44557;51.862;19.378;2023-05-14T00:29:29;12.80;;;8.10;;
58784;SDS011;44557;51.862;19.378;2023-05-14T00:31:31;13.40;;;7.40;;
58784;SDS011;44557;51.862;19.378;2023-05-14T00:33:33;12.90;;;7.40;;
58784;SDS011;44557;51.862;19.378;2023-05-14T00:35:35;13.20;;;8.00;;
58784;SDS011;44557;51.862;19.378;2023-05-14T00:37:36;12.90;;;7.70;;
58784;SDS011;44557;51.862;19.378;2023-05-14T00:39:39;13.20;;;7.80;;
58784;SDS011;44557;51.862;19.378;2023-05-14T00:41:41;12.20;;;7.40;;
58784;SDS011;44557;51.862;19.378;2023-05-14T00:43:42;14.70;;;8.00;;
58784;SDS011;44557;51.862;19.378;2023-05-14T00:45:44;13.00;;;7.70;;
58784;SDS011;44557;51.862;19.378;2023-05-14T00:47:50;14.90;;;8.30;;
58784;SDS011;44557;51.862;19.378;2023-05-14T00:49:53;13.30;;;7.80;;
58784;SDS011;44557;51.862;19.378;2023-05-14T00:51:54;11.30;;;7.80;;
58784;SDS011;44557;51.862;19.378;2023-05-14T00:54:00;12.40;;;7.60;;
58784;SDS011;44557;51.862;19.378;2023-05-14T00:56:02;14.00;;;8.60;;
58784;SDS011;44557;51.862;19.378;2023-05-14T00:58:05;11.70;;;8.00;;
58784;SDS011;44557;51.862;19.378;2023-05-14T01:00:10;11.70;;;8.10;;
58784;SDS011;44557;51.862;19.378;2023-05-14T01:02:13;15.40;;;8.20;;
58784;SDS011;44557;51.862;19.378;2023-05-14T01:04:14;15.70;;;9.20;;
58784;SDS011;44557;51.862;19.378;2023-05-14T01:10:52;12.40;;;8.20;;
58784;SDS011;44557;51.862;19.378;2023-05-14T01:13:17;12.20;;;8.60;;
58784;SDS011;44557;51.862;19.378;2023-05-14T01:15:43;12.50;;;7.80;;
58784;SDS011;44557;51.862;19.378;2023-05-14T01:17:49;10.60;;;7.50;;
58784;SDS011;44557;51.862;19.378;2023-05-14T01:19:55;13.40;;;7.90;;
58784;SDS011;44557;51.862;19.378;2023-05-14T01:21:59;12.10;;;7.80;;
58784;SDS011;44557;51.862;19.378;2023-05-14T01:24:01;11.50;;;8.00;;
58784;SDS011;44557;51.862;19.378;2023-05-14T01:26:03;15.00;;;8.20;;
58784;SDS011;44557;51.862;19.378;2023-05-14T01:28:09;11.10;;;7.80;;
58784;SDS011;44557;51.862;19.378;2023-05-14T01:30:21;14.50;;;8.30;;
58784;SDS011;44557;51.862;19.378;2023-05-14T01:32:30;13.00;;;8.10;;
58784;SDS011;44557;51.862;19.378;2023-05-14T01:34:35;13.30;;;8.30;;
58784;SDS011;44557;51.862;19.378;2023-05-14T01:36:39;10.20;;;8.00;;
58784;SDS011;44557;51.862;19.378;2023-05-14T01:38:42;11.30;;;7.80;;
58784;SDS011;44557;51.862;19.378;2023-05-14T01:40:47;13.20;;;8.40;;
58784;SDS011;44557;51.862;19.378;2023-05-14T01:42:50;12.10;;;8.00;;
58784;SDS011;44557;51.862;19.378;2023-05-14T01:44:54;11.20;;;7.70;;
58784;SDS011;44557;51.862;19.378;2023-05-14T01:46:56;15.00;;;8.60;;
58784;SDS011;44557;51.862;19.378;2023-05-14T01:48:58;11.40;;;7.70;;
58784;SDS011;44557;51.862;19.378;2023-05-14T01:51:01;11.40;;;7.90;;
58784;SDS011;44557;51.862;19.378;2023-05-14T01:53:03;14.60;;;8.50;;
58784;SDS011;44557;51.862;19.378;2023-05-14T01:55:05;13.10;;;8.60;;
58784;SDS011;44557;51.862;19.378;2023-05-14T01:57:07;15.30;;;8.40;;
58784;SDS011;44557;51.862;19.378;2023-05-14T01:59:09;12.80;;;8.10;;
58784;SDS011;44557;51.862;19.378;2023-05-14T02:01:11;13.20;;;8.80;;
58784;SDS011;44557;51.862;19.378;2023-05-14T02:03:13;10.50;;;8.40;;
58784;SDS011;44557;51.862;19.378;2023-05-14T02:05:14;12.90;;;8.10;;
58784;SDS011;44557;51.862;19.378;2023-05-14T02:07:16;13.80;;;8.80;;
58784;SDS011;44557;51.862;19.378;2023-05-14T02:09:18;12.60;;;7.50;;
58784;SDS011;44557;51.862;19.378;2023-05-14T02:11:20;10.80;;;8.10;;
58784;SDS011;44557;51.862;19.378;2023-05-14T02:13:22;13.60;;;8.40;;
58784;SDS011;44557;51.862;19.378;2023-05-14T02:15:23;11.50;;;8.00;;
58784;SDS011;44557;51.862;19.378;2023-05-14T02:17:25;10.20;;;7.70;;
58784;SDS011;44557;51.862;19.378;2023-05-14T02:19:27;12.90;;;7.80;;
58784;SDS011;44557;51.862;19.378;2023-05-14T02:21:29;12.00;;;7.90;;
58784;SDS011;44557;51.862;19.378;2023-05-14T02:23:32;12.10;;;7.20;;
58784;SDS011;44557;51.862;19.378;2023-05-14T02:25:35;14.30;;;8.00;;
58784;SDS011;44557;51.862;19.378;2023-05-14T02:27:37;13.60;;;8.20;;
58784;SDS011;44557;51.862;19.378;2023-05-14T02:29:38;13.30;;;8.10;;
58784;SDS011;44557;51.862;19.378;2023-05-14T02:31:41;10.10;;;7.00;;
58784;SDS011;44557;51.862;19.378;2023-05-14T02:33:43;11.90;;;7.80;;
58784;SDS011;44557;51.862;19.378;2023-05-14T02:35:46;11.30;;;7.50;;
58784;SDS011;44557;51.862;19.378;2023-05-14T02:37:48;11.10;;;7.70;;
58784;SDS011;44557;51.862;19.378;2023-05-14T02:39:49;11.30;;;7.90;;
58784;SDS011;44557;51.862;19.378;2023-05-14T02:41:51;12.40;;;8.10;;
58784;SDS011;44557;51.862;19.378;2023-05-14T02:43:52;10.10;;;7.20;;
58784;SDS011;44557;51.862;19.378;2023-05-14T02:45:55;12.30;;;7.60;;
58784;SDS011;44557;51.862;19.378;2023-05-14T02:47:56;12.60;;;8.00;;
58784;SDS011;44557;51.862;19.378;2023-05-14T02:49:58;10.40;;;7.30;;
58784;SDS011;44557;51.862;19.378;2023-05-14T02:51:59;12.60;;;7.60;;
58784;SDS011;44557;51.862;19.378;2023-05-14T02:54:01;11.10;;;7.60;;
58784;SDS011;44557;51.862;19.378;2023-05-14T02:56:03;11.20;;;7.70;;
58784;SDS011;44557;51.862;19.378;2023-05-14T02:58:05;12.00;;;7.70;;
58784;SDS011;44557;51.862;19.378;2023-05-14T03:00:07;11.60;;;7.60;;
58784;SDS011;44557;51.862;19.378;2023-05-14T03:02:09;12.20;;;7.80;;
58784;SDS011;44557;51.862;19.378;2023-05-14T03:04:11;11.70;;;6.40;;
58784;SDS011;44557;51.862;19.378;2023-05-14T03:06:12;11.50;;;6.80;;
58784;SDS011;44557;51.862;19.378;2023-05-14T03:08:14;10.40;;;7.40;;
58784;SDS011;44557;51.862;19.378;2023-05-14T03:10:15;11.60;;;7.50;;
58784;SDS011;44557;51.862;19.378;2023-05-14T03:12:18;11.10;;;7.40;;
58784;SDS011;44557;51.862;19.378;2023-05-14T03:14:21;11.50;;;7.90;;
58784;SDS011;44557;51.862;19.378;2023-05-14T03:16:23;11.90;;;8.20;;
58784;SDS011;44557;51.862;19.378;2023-05-14T03:18:24;12.10;;;8.00;;
58784;SDS011;44557;51.862;19.378;2023-05-14T03:20:28;11.60;;;7.90;;
58784;SDS011;44557;51.862;19.378;2023-05-14T03:22:30;11.60;;;8.10;;
58784;SDS011;44557;51.862;19.378;2023-05-14T03:24:31;11.90;;;7.20;;
58784;SDS011;44557;51.862;19.378;2023-05-14T03:26:33;13.50;;;8.50;;
58784;SDS011;44557;51.862;19.378;2023-05-14T03:28:35;13.00;;;7.60;;
58784;SDS011;44557;51.862;19.378;2023-05-14T03:30:36;14.70;;;7.90;;
58784;SDS011;44557;51.862;19.378;2023-05-14T03:32:38;11.20;;;7.20;;
58784;SDS011;44557;51.862;19.378;2023-05-14T03:34:40;12.20;;;7.20;;
58784;SDS011;44557;51.862;19.378;2023-05-14T03:36:42;15.60;;;7.60;;
58784;SDS011;44557;51.862;19.378;2023-05-14T03:38:43;14.40;;;8.20;;
58784;SDS011;44557;51.862;19.378;2023-05-14T03:40:45;13.00;;;7.70;;
58784;SDS011;44557;51.862;19.378;2023-05-14T03:42:46;11.20;;;7.60;;
58784;SDS011;44557;51.862;19.378;2023-05-14T03:44:48;11.00;;;7.90;;
58784;SDS011;44557;51.862;19.378;2023-05-14T03:46:50;12.50;;;7.90;;
58784;SDS011;44557;51.862;19.378;2023-05-14T03:48:51;11.70;;;7.50;;
58784;SDS011;44557;51.862;19.378;2023-05-14T03:50:53;11.10;;;6.80;;
58784;SDS011;44557;51.862;19.378;2023-05-14T03:52:54;11.90;;;7.10;;
58784;SDS011;44557;51.862;19.378;2023-05-14T03:54:56;11.40;;;7.10;;
58784;SDS011;44557;51.862;19.378;2023-05-14T03:56:57;11.00;;;6.80;;
58784;SDS011;44557;51.862;19.378;2023-05-14T03:58:59;10.30;;;7.50;;
58784;SDS011;44557;51.862;19.378;2023-05-14T04:01:01;10.60;;;6.00;;
58784;SDS011;44557;51.862;19.378;2023-05-14T04:03:02;10.10;;;6.90;;
58784;SDS011;44557;51.862;19.378;2023-05-14T04:05:04;11.60;;;7.70;;
58784;SDS011;44557;51.862;19.378;2023-05-14T04:07:06;12.80;;;8.00;;
58784;SDS011;44557;51.862;19.378;2023-05-14T04:09:09;11.30;;;7.60;;
58784;SDS011;44557;51.862;19.378;2023-05-14T04:11:11;11.40;;;7.00;;
58784;SDS011;44557;51.862;19.378;2023-05-14T04:13:12;11.40;;;7.10;;
58784;SDS011;44557;51.862;19.378;2023-05-14T04:15:14;13.40;;;7.20;;
58784;SDS011;44557;51.862;19.378;2023-05-14T04:17:16;11.40;;;6.90;;
58784;SDS011;44557;51.862;19.378;2023-05-14T04:19:17;12.20;;;7.30;;
58784;SDS011;44557;51.862;19.378;2023-05-14T04:21:19;12.40;;;6.90;;
58784;SDS011;44557;51.862;19.378;2023-05-14T04:23:20;10.90;;;6.50;;
58784;SDS011;44557;51.862;19.378;2023-05-14T04:25:22;11.70;;;6.00;;
58784;SDS011;44557;51.862;19.378;2023-05-14T04:27:24;10.70;;;6.50;;
58784;SDS011;44557;51.862;19.378;2023-05-14T04:29:26;9.80;;;6.00;;
58784;SDS011;44557;51.862;19.378;2023-05-14T04:31:30;13.00;;;6.90;;
58784;SDS011;44557;51.862;19.378;2023-05-14T04:33:32;9.00;;;5.60;;
58784;SDS011;44557;51.862;19.378;2023-05-14T04:35:34;11.40;;;6.10;;
58784;SDS011;44557;51.862;19.378;2023-05-14T04:37:35;11.20;;;6.20;;
58784;SDS011;44557;51.862;19.378;2023-05-14T04:39:37;10.50;;;5.90;;
58784;SDS011;44557;51.862;19.378;2023-05-14T04:41:39;10.20;;;6.00;;
58784;SDS011;44557;51.862;19.378;2023-05-14T04:43:41;9.50;;;6.10;;
58784;SDS011;44557;51.862;19.378;2023-05-14T04:45:42;9.40;;;6.10;;
58784;SDS011;44557;51.862;19.378;2023-05-14T04:47:44;9.30;;;6.00;;
58784;SDS011;44557;51.862;19.378;2023-05-14T04:49:46;8.60;;;5.40;;
58784;SDS011;44557;51.862;19.378;2023-05-14T04:51:48;10.70;;;6.40;;
58784;SDS011;44557;51.862;19.378;2023-05-14T04:53:53;9.30;;;5.80;;
58784;SDS011;44557;51.862;19.378;2023-05-14T04:55:54;9.60;;;5.80;;
58784;SDS011;44557;51.862;19.378;2023-05-14T04:57:56;10.40;;;6.10;;
58784;SDS011;44557;51.862;19.378;2023-05-14T04:59:58;12.10;;;7.00;;
58784;SDS011;44557;51.862;19.378;2023-05-14T05:01:59;10.80;;;6.60;;
58784;SDS011;44557;51.862;19.378;2023-05-14T05:04:01;14.40;;;8.10;;
58784;SDS011;44557;51.862;19.378;2023-05-14T05:06:03;14.90;;;8.50;;
58784;SDS011;44557;51.862;19.378;2023-05-14T05:08:04;14.30;;;8.80;;
58784;SDS011;44557;51.862;19.378;2023-05-14T05:10:06;13.30;;;7.20;;
58784;SDS011;44557;51.862;19.378;2023-05-14T05:12:08;10.20;;;6.00;;
58784;SDS011;44557;51.862;19.378;2023-05-14T05:14:10;10.30;;;6.20;;
58784;SDS011;44557;51.862;19.378;2023-05-14T05:16:12;8.80;;;6.20;;
58784;SDS011;44557;51.862;19.378;2023-05-14T05:18:13;12.80;;;6.90;;
58784;SDS011;44557;51.862;19.378;2023-05-14T05:20:15;12.00;;;6.90;;
58784;SDS011;44557;51.862;19.378;2023-05-14T05:22:18;13.00;;;6.90;;
58784;SDS011;44557;51.862;19.378;2023-05-14T05:24:20;12.00;;;7.00;;
58784;SDS011;44557;51.862;19.378;2023-05-14T05:26:23;11.00;;;6.60;;
58784;SDS011;44557;51.862;19.378;2023-05-14T05:28:27;12.50;;;6.90;;
58784;SDS011;44557;51.862;19.378;2023-05-14T05:30:28;12.20;;;6.40;;
58784;SDS011;44557;51.862;19.378;2023-05-14T05:32:30;10.70;;;6.30;;
58784;SDS011;44557;51.862;19.378;2023-05-14T05:34:32;10.20;;;6.50;;
58784;SDS011;44557;51.862;19.378;2023-05-14T05:36:35;10.60;;;6.50;;
58784;SDS011;44557;51.862;19.378;2023-05-14T05:38:36;10.20;;;6.30;;
58784;SDS011;44557;51.862;19.378;2023-05-14T05:40:38;10.00;;;6.70;;
58784;SDS011;44557;51.862;19.378;2023-05-14T05:42:40;15.00;;;7.30;;
58784;SDS011;44557;51.862;19.378;2023-05-14T05:44:42;11.10;;;6.10;;
58784;SDS011;44557;51.862;19.378;2023-05-14T05:46:44;8.60;;;6.20;;
58784;SDS011;44557;51.862;19.378;2023-05-14T05:48:46;8.40;;;5.80;;
58784;SDS011;44557;51.862;19.378;2023-05-14T05:50:48;8.80;;;6.50;;
58784;SDS011;44557;51.862;19.378;2023-05-14T05:52:50;9.60;;;6.40;;
58784;SDS011;44557;51.862;19.378;2023-05-14T05:54:53;9.60;;;6.10;;
58784;SDS011;44557;51.862;19.378;2023-05-14T05:56:54;8.70;;;6.00;;
58784;SDS011;44557;51.862;19.378;2023-05-14T05:58:56;8.70;;;5.10;;
58784;SDS011;44557;51.862;19.378;2023-05-14T06:00:58;8.10;;;4.90;;
58784;SDS011;44557;51.862;19.378;2023-05-14T06:03:00;7.90;;;4.80;;
58784;SDS011;44557;51.862;19.378;2023-05-14T06:05:02;8.30;;;4.60;;
58784;SDS011;44557;51.862;19.378;2023-05-14T06:07:04;7.50;;;4.40;;
58784;SDS011;44557;51.862;19.378;2023-05-14T06:09:05;6.90;;;4.20;;
58784;SDS011;44557;51.862;19.378;2023-05-14T06:11:09;9.50;;;4.50;;
58784;SDS011;44557;51.862;19.378;2023-05-14T06:13:11;7.00;;;4.00;;
58784;SDS011;44557;51.862;19.378;2023-05-14T06:15:13;8.40;;;3.90;;
58784;SDS011;44557;51.862;19.378;2023-05-14T06:17:15;7.30;;;4.40;;
58784;SDS011;44557;51.862;19.378;2023-05-14T06:19:17;8.10;;;3.80;;
58784;SDS011;44557;51.862;19.378;2023-05-14T06:21:19;8.20;;;3.90;;
58784;SDS011;44557;51.862;19.378;2023-05-14T06:23:20;6.80;;;4.10;;
58784;SDS011;44557;51.862;19.378;2023-05-14T06:25:22;8.70;;;4.20;;
58784;SDS011;44557;51.862;19.378;2023-05-14T06:27:24;6.30;;;3.80;;
58784;SDS011;44557;51.862;19.378;2023-05-14T06:29:26;6.30;;;3.70;;
58784;SDS011;44557;51.862;19.378;2023-05-14T06:31:27;6.70;;;3.70;;
58784;SDS011;44557;51.862;19.378;2023-05-14T06:33:29;7.10;;;3.60;;
58784;SDS011;44557;51.862;19.378;2023-05-14T06:35:31;8.60;;;3.70;;
58784;SDS011;44557;51.862;19.378;2023-05-14T06:37:33;7.40;;;3.30;;
58784;SDS011;44557;51.862;19.378;2023-05-14T06:39:35;6.70;;;3.40;;
58784;SDS011;44557;51.862;19.378;2023-05-14T06:41:37;6.20;;;3.30;;
58784;SDS011;44557;51.862;19.378;2023-05-14T06:43:39;5.90;;;3.20;;
58784;SDS011;44557;51.862;19.378;2023-05-14T06:45:41;5.50;;;3.10;;
58784;SDS011;44557;51.862;19.378;2023-05-14T06:47:42;7.30;;;3.20;;
58784;SDS011;44557;51.862;19.378;2023-05-14T06:49:44;7.10;;;3.50;;
58784;SDS011;44557;51.862;19.378;2023-05-14T06:51:46;8.70;;;3.50;;
58784;SDS011;44557;51.862;19.378;2023-05-14T06:53:47;6.70;;;2.70;;
58784;SDS011;44557;51.862;19.378;2023-05-14T06:55:49;7.20;;;3.20;;
58784;SDS011;44557;51.862;19.378;2023-05-14T06:57:51;6.30;;;3.20;;
58784;SDS011;44557;51.862;19.378;2023-05-14T06:59:53;7.80;;;3.20;;
58784;SDS011;44557;51.862;19.378;2023-05-14T07:01:54;7.40;;;3.90;;
58784;SDS011;44557;51.862;19.378;2023-05-14T07:03:56;7.00;;;3.70;;
58784;SDS011;44557;51.862;19.378;2023-05-14T07:05:58;7.80;;;3.30;;
58784;SDS011;44557;51.862;19.378;2023-05-14T07:08:00;6.60;;;3.30;;
58784;SDS011;44557;51.862;19.378;2023-05-14T07:10:01;5.90;;;3.10;;
58784;SDS011;44557;51.862;19.378;2023-05-14T07:12:03;5.20;;;3.20;;
58784;SDS011;44557;51.862;19.378;2023-05-14T07:14:05;8.00;;;3.90;;
58784;SDS011;44557;51.862;19.378;2023-05-14T07:16:07;7.40;;;3.30;;
58784;SDS011;44557;51.862;19.378;2023-05-14T07:18:11;6.40;;;3.10;;
58784;SDS011;44557;51.862;19.378;2023-05-14T07:20:13;7.60;;;3.60;;
58784;SDS011;44557;51.862;19.378;2023-05-14T07:22:15;10.90;;;3.60;;
58784;SDS011;44557;51.862;19.378;2023-05-14T07:24:16;7.00;;;3.90;;
58784;SDS011;44557;51.862;19.378;2023-05-14T07:26:18;6.30;;;3.90;;
58784;SDS011;44557;51.862;19.378;2023-05-14T07:28:19;7.00;;;4.00;;
58784;SDS011;44557;51.862;19.378;2023-05-14T07:30:22;10.00;;;4.50;;
58784;SDS011;44557;51.862;19.378;2023-05-14T07:32:23;6.90;;;4.10;;
58784;SDS011;44557;51.862;19.378;2023-05-14T07:34:25;10.10;;;4.20;;
58784;SDS011;44557;51.862;19.378;2023-05-14T07:36:27;8.40;;;4.00;;
58784;SDS011;44557;51.862;19.378;2023-05-14T07:38:29;6.70;;;4.00;;
58784;SDS011;44557;51.862;19.378;2023-05-14T07:40:31;7.70;;;4.00;;
58784;SDS011;44557;51.862;19.378;2023-05-14T07:42:33;7.20;;;4.20;;
58784;SDS011;44557;51.862;19.378;2023-05-14T07:44:36;8.00;;;4.50;;
58784;SDS011;44557;51.862;19.378;2023-05-14T07:46:37;7.20;;;4.40;;
58784;SDS011;44557;51.862;19.378;2023-05-14T07:48:39;8.30;;;4.90;;
58784;SDS011;44557;51.862;19.378;2023-05-14T07:50:41;7.10;;;4.40;;
58784;SDS011;44557;51.862;19.378;2023-05-14T07:52:42;9.10;;;4.60;;
58784;SDS011;44557;51.862;19.378;2023-05-14T07:54:44;9.00;;;4.70;;
58784;SDS011;44557;51.862;19.378;2023-05-14T07:56:46;6.40;;;4.00;;
58784;SDS011;44557;51.862;19.378;2023-05-14T07:58:48;8.80;;;4.50;;
58784;SDS011;44557;51.862;19.378;2023-05-14T08:00:50;7.40;;;4.30;;
58784;SDS011;44557;51.862;19.378;2023-05-14T08:02:53;8.20;;;4.20;;
58784;SDS011;44557;51.862;19.378;2023-05-14T08:04:55;8.40;;;4.40;;
58784;SDS011;44557;51.862;19.378;2023-05-14T08:06:57;8.20;;;4.40;;
58784;SDS011;44557;51.862;19.378;2023-05-14T08:08:58;8.40;;;4.40;;
58784;SDS011;44557;51.862;19.378;2023-05-14T08:11:01;9.50;;;5.00;;
58784;SDS011;44557;51.862;19.378;2023-05-14T08:13:05;9.60;;;4.80;;
58784;SDS011;44557;51.862;19.378;2023-05-14T08:15:07;6.30;;;4.10;;
58784;SDS011;44557;51.862;19.378;2023-05-14T08:17:09;7.70;;;4.20;;
58784;SDS011;44557;51.862;19.378;2023-05-14T08:19:11;9.40;;;4.30;;
58784;SDS011;44557;51.862;19.378;2023-05-14T08:21:13;7.10;;;4.50;;
58784;SDS011;44557;51.862;19.378;2023-05-14T08:23:14;8.70;;;4.50;;
58784;SDS011;44557;51.862;19.378;2023-05-14T08:25:16;9.50;;;5.00;;
58784;SDS011;44557;51.862;19.378;2023-05-14T08:27:18;7.80;;;4.40;;
58784;SDS011;44557;51.862;19.378;2023-05-14T08:29:21;8.80;;;4.30;;
58784;SDS011;44557;51.862;19.378;2023-05-14T08:31:23;7.80;;;4.70;;
58784;SDS011;44557;51.862;19.378;2023-05-14T08:33:24;8.60;;;4.50;;
58784;SDS011;44557;51.862;19.378;2023-05-14T08:35:26;11.20;;;4.50;;
58784;SDS011;44557;51.862;19.378;2023-05-14T08:37:27;8.90;;;4.30;;
58784;SDS011;44557;51.862;19.378;2023-05-14T08:39:29;13.60;;;8.40;;
58784;SDS011;44557;51.862;19.378;2023-05-14T08:41:31;7.70;;;4.20;;
58784;SDS011;44557;51.862;19.378;2023-05-14T08:43:43;9.30;;;4.60;;
58784;SDS011;44557;51.862;19.378;2023-05-14T08:46:00;8.60;;;4.40;;
58784;SDS011;44557;51.862;19.378;2023-05-14T08:48:06;9.00;;;4.70;;
58784;SDS011;44557;51.862;19.378;2023-05-14T08:50:09;9.20;;;4.40;;
58784;SDS011;44557;51.862;19.378;2023-05-14T08:52:12;7.20;;;4.10;;
58784;SDS011;44557;51.862;19.378;2023-05-14T08:54:16;8.90;;;4.50;;
58784;SDS011;44557;51.862;19.378;2023-05-14T08:56:18;9.60;;;4.60;;
58784;SDS011;44557;51.862;19.378;2023-05-14T08:58:20;7.80;;;4.20;;
58784;SDS011;44557;51.862;19.378;2023-05-14T09:00:22;8.60;;;3.90;;
58784;SDS011;44557;51.862;19.378;2023-05-14T09:02:24;8.20;;;3.80;;
58784;SDS011;44557;51.862;19.378;2023-05-14T09:04:28;7.40;;;3.90;;
58784;SDS011;44557;51.862;19.378;2023-05-14T09:06:34;7.30;;;3.90;;
58784;SDS011;44557;51.862;19.378;2023-05-14T09:08:38;10.40;;;4.20;;
58784;SDS011;44557;51.862;19.378;2023-05-14T09:10:39;10.30;;;4.00;;
58784;SDS011;44557;51.862;19.378;2023-05-14T09:12:42;5.80;;;3.00;;
58784;SDS011;44557;51.862;19.378;2023-05-14T09:14:44;6.60;;;2.90;;
58784;SDS011;44557;51.862;19.378;2023-05-14T09:16:47;7.20;;;2.70;;
58784;SDS011;44557;51.862;19.378;2023-05-14T09:18:50;6.60;;;2.90;;
58784;SDS011;44557;51.862;19.378;2023-05-14T09:20:52;6.20;;;3.20;;
58784;SDS011;44557;51.862;19.378;2023-05-14T09:22:55;6.70;;;2.60;;
58784;SDS011;44557;51.862;19.378;2023-05-14T09:25:06;7.60;;;2.60;;
58784;SDS011;44557;51.862;19.378;2023-05-14T09:27:18;6.80;;;2.60;;
58784;SDS011;44557;51.862;19.378;2023-05-14T09:29:24;4.90;;;2.50;;
58784;SDS011;44557;51.862;19.378;2023-05-14T09:31:31;10.50;;;2.60;;
58784;SDS011;44557;51.862;19.378;2023-05-14T09:33:34;5.80;;;2.50;;
58784;SDS011;44557;51.862;19.378;2023-05-14T09:35:36;7.40;;;3.00;;
58784;SDS011;44557;51.862;19.378;2023-05-14T09:37:41;6.70;;;2.60;;
58784;SDS011;44557;51.862;19.378;2023-05-14T09:39:47;6.60;;;2.80;;
58784;SDS011;44557;51.862;19.378;2023-05-14T09:41:48;9.20;;;3.20;;
58784;SDS011;44557;51.862;19.378;2023-05-14T09:43:52;5.90;;;2.70;;
58784;SDS011;44557;51.862;19.378;2023-05-14T09:45:54;6.10;;;2.70;;
58784;SDS011;44557;51.862;19.378;2023-05-14T09:47:58;5.70;;;2.70;;
58784;SDS011;44557;51.862;19.378;2023-05-14T09:50:01;5.30;;;2.90;;
58784;SDS011;44557;51.862;19.378;2023-05-14T09:52:05;6.40;;;2.80;;
58784;SDS011;44557;51.862;19.378;2023-05-14T09:54:07;8.50;;;3.40;;
58784;SDS011;44557;51.862;19.378;2023-05-14T09:56:09;7.40;;;3.00;;
58784;SDS011;44557;51.862;19.378;2023-05-14T09:58:11;6.00;;;3.20;;
58784;SDS011;44557;51.862;19.378;2023-05-14T10:00:15;6.70;;;3.10;;
58784;SDS011;44557;51.862;19.378;2023-05-14T10:02:22;8.90;;;3.40;;
58784;SDS011;44557;51.862;19.378;2023-05-14T10:04:25;6.20;;;2.70;;
58784;SDS011;44557;51.862;19.378;2023-05-14T10:06:27;6.10;;;2.90;;
58784;SDS011;44557;51.862;19.378;2023-05-14T10:08:33;8.90;;;3.30;;
58784;SDS011;44557;51.862;19.378;2023-05-14T10:10:36;5.70;;;2.70;;
58784;SDS011;44557;51.862;19.378;2023-05-14T10:12:38;4.30;;;2.70;;
58784;SDS011;44557;51.862;19.378;2023-05-14T10:14:42;6.70;;;2.80;;
58784;SDS011;44557;51.862;19.378;2023-05-14T10:16:53;7.50;;;2.70;;
58784;SDS011;44557;51.862;19.378;2023-05-14T10:19:09;5.40;;;2.90;;
58784;SDS011;44557;51.862;19.378;2023-05-14T10:21:11;5.60;;;2.70;;
58784;SDS011;44557;51.862;19.378;2023-05-14T10:23:15;6.80;;;2.90;;
58784;SDS011;44557;51.862;19.378;2023-05-14T10:25:17;7.00;;;2.90;;
58784;SDS011;44557;51.862;19.378;2023-05-14T10:27:20;5.50;;;3.10;;
58784;SDS011;44557;51.862;19.378;2023-05-14T10:29:32;5.80;;;2.90;;
58784;SDS011;44557;51.862;19.378;2023-05-14T10:31:53;8.90;;;2.80;;
58784;SDS011;44557;51.862;19.378;2023-05-14T10:33:55;5.90;;;2.60;;
58784;SDS011;44557;51.862;19.378;2023-05-14T10:36:00;4.70;;;2.40;;
58784;SDS011;44557;51.862;19.378;2023-05-14T10:38:06;4.30;;;2.30;;
58784;SDS011;44557;51.862;19.378;2023-05-14T10:40:09;5.20;;;2.60;;
58784;SDS011;44557;51.862;19.378;2023-05-14T10:42:11;4.30;;;1.90;;
58784;SDS011;44557;51.862;19.378;2023-05-14T10:44:15;6.00;;;2.20;;
58784;SDS011;44557;51.862;19.378;2023-05-14T10:46:23;5.10;;;2.20;;
58784;SDS011;44557;51.862;19.378;2023-05-14T10:48:26;3.40;;;1.90;;
58784;SDS011;44557;51.862;19.378;2023-05-14T10:50:27;7.30;;;2.20;;
58784;SDS011;44557;51.862;19.378;2023-05-14T10:52:30;3.90;;;1.50;;
58784;SDS011;44557;51.862;19.378;2023-05-14T10:54:34;4.60;;;2.00;;
58784;SDS011;44557;51.862;19.378;2023-05-14T10:56:36;5.00;;;1.90;;
58784;SDS011;44557;51.862;19.378;2023-05-14T10:58:38;2.10;;;1.50;;
58784;SDS011;44557;51.862;19.378;2023-05-14T11:00:42;5.50;;;1.90;;
58784;SDS011;44557;51.862;19.378;2023-05-14T11:02:49;3.90;;;2.00;;
58784;SDS011;44557;51.862;19.378;2023-05-14T11:05:03;4.30;;;2.00;;
58784;SDS011;44557;51.862;19.378;2023-05-14T11:07:08;3.50;;;1.80;;
58784;SDS011;44557;51.862;19.378;2023-05-14T11:09:11;4.30;;;2.00;;
58784;SDS011;44557;51.862;19.378;2023-05-14T11:11:17;4.70;;;1.90;;
58784;SDS011;44557;51.862;19.378;2023-05-14T11:13:19;4.20;;;1.90;;
58784;SDS011;44557;51.862;19.378;2023-05-14T11:15:22;2.80;;;1.80;;
58784;SDS011;44557;51.862;19.378;2023-05-14T11:17:26;4.50;;;1.90;;
58784;SDS011;44557;51.862;19.378;2023-05-14T11:19:29;3.00;;;1.90;;
58784;SDS011;44557;51.862;19.378;2023-05-14T11:21:31;4.00;;;2.10;;
58784;SDS011;44557;51.862;19.378;2023-05-14T11:23:32;3.20;;;1.50;;
58784;SDS011;44557;51.862;19.378;2023-05-14T11:25:34;5.60;;;2.20;;
58784;SDS011;44557;51.862;19.378;2023-05-14T11:27:37;2.10;;;1.50;;
58784;SDS011;44557;51.862;19.378;2023-05-14T11:29:42;4.30;;;2.30;;
58784;SDS011;44557;51.862;19.378;2023-05-14T11:31:46;5.10;;;1.60;;
58784;SDS011;44557;51.862;19.378;2023-05-14T11:33:48;5.30;;;1.70;;
58784;SDS011;44557;51.862;19.378;2023-05-14T11:35:49;4.90;;;1.70;;
58784;SDS011;44557;51.862;19.378;2023-05-14T11:37:52;5.00;;;1.80;;
58784;SDS011;44557;51.862;19.378;2023-05-14T11:39:54;4.60;;;2.10;;
58784;SDS011;44557;51.862;19.378;2023-05-14T11:42:01;3.20;;;1.60;;
58784;SDS011;44557;51.862;19.378;2023-05-14T11:44:04;2.80;;;1.30;;
58784;SDS011;44557;51.862;19.378;2023-05-14T11:46:06;3.10;;;1.60;;
58784;SDS011;44557;51.862;19.378;2023-05-14T11:48:11;3.10;;;1.50;;
58784;SDS011;44557;51.862;19.378;2023-05-14T11:50:15;4.20;;;1.50;;
58784;SDS011;44557;51.862;19.378;2023-05-14T11:52:16;4.70;;;1.90;;
58784;SDS011;44557;51.862;19.378;2023-05-14T11:54:23;5.30;;;2.10;;
58784;SDS011;44557;51.862;19.378;2023-05-14T11:56:26;5.70;;;2.00;;
58784;SDS011;44557;51.862;19.378;2023-05-14T11:58:30;4.70;;;1.50;;
58784;SDS011;44557;51.862;19.378;2023-05-14T12:00:33;4.40;;;1.50;;
58784;SDS011;44557;51.862;19.378;2023-05-14T12:02:34;3.70;;;1.60;;
58784;SDS011;44557;51.862;19.378;2023-05-14T12:04:37;4.30;;;1.60;;
58784;SDS011;44557;51.862;19.378;2023-05-14T12:06:39;3.50;;;1.60;;
58784;SDS011;44557;51.862;19.378;2023-05-14T12:08:40;4.40;;;1.60;;